createdAt,value
2022-11-15T00:00:55.322Z,63.35
2022-11-15T00:03:25.040Z,63.42
2022-11-15T00:05:51.805Z,64.10
2022-11-15T00:08:18.536Z,65.10
2022-11-15T00:10:58.837Z,62.58
2022-11-15T00:15:52.365Z,61.50
2022-11-15T00:18:19.488Z,71.65
2022-11-15T00:20:46.294Z,63.78
2022-11-15T00:23:13.148Z,63.97
2022-11-15T00:25:39.788Z,72.88
2022-11-15T00:28:06.502Z,62.90
2022-11-15T00:30:33.514Z,66.43
2022-11-15T00:33:07.192Z,68.35
2022-11-15T00:35:34.634Z,66.85
2022-11-15T00:38:02.141Z,68.72
2022-11-15T00:40:28.862Z,66.85
2022-11-15T00:42:55.511Z,67.43
2022-11-15T00:45:22.310Z,66.88
2022-11-15T00:47:48.916Z,67.70
2022-11-15T00:50:15.786Z,65.43
2022-11-15T00:52:42.857Z,66.30
2022-11-15T00:55:15.911Z,60.55
2022-11-15T00:57:42.697Z,61.42
2022-11-15T01:00:10.173Z,64.05
2022-11-15T01:02:36.855Z,59.72
2022-11-15T01:05:03.741Z,59.63
2022-11-15T01:07:30.473Z,62.15
2022-11-15T01:09:57.129Z,58.70
2022-11-15T01:12:23.733Z,61.10
2022-11-15T01:14:50.823Z,59.97
2022-11-15T01:17:17.537Z,65.47
2022-11-15T01:19:44.122Z,67.32
2022-11-15T01:22:10.749Z,65.13
2022-11-15T01:24:37.428Z,63.08
2022-11-15T01:27:04.129Z,66.25
2022-11-15T01:29:30.752Z,63.20
2022-11-15T01:31:57.361Z,60.50
2022-11-15T01:34:23.948Z,60.70
2022-11-15T01:36:50.568Z,60.20
2022-11-15T01:39:17.745Z,58.15
2022-11-15T01:41:44.486Z,58.35
2022-11-15T01:44:35.729Z,65.85
2022-11-15T01:47:07.970Z,62.40
2022-11-15T01:49:38.733Z,55.70
2022-11-15T01:52:11.339Z,58.65
2022-11-15T01:54:38.076Z,63.25
2022-11-15T01:57:12.919Z,56.88
2022-11-15T01:59:43.214Z,61.83
2022-11-15T02:02:10.012Z,63.75
2022-11-15T02:04:41.521Z,62.45
2022-11-15T02:07:10.757Z,63.88
2022-11-15T02:09:38.585Z,64.60
2022-11-15T02:12:06.382Z,67.80
2022-11-15T02:14:34.152Z,59.72
2022-11-15T02:17:19.771Z,61.88
2022-11-15T02:20:29.281Z,66.78
2022-11-15T02:23:33.953Z,69.90
2022-11-15T02:26:29.924Z,65.00
2022-11-15T02:29:02.584Z,66.32
2022-11-15T02:31:52.606Z,61.70
2022-11-15T02:34:42.531Z,69.88
2022-11-15T02:37:30.148Z,67.78
2022-11-15T02:40:23.252Z,71.82
2022-11-15T02:43:27.887Z,65.30
2022-11-15T02:46:12.784Z,65.00
2022-11-15T02:48:40.195Z,71.75
2022-11-15T02:51:07.360Z,68.90
2022-11-15T02:53:34.212Z,71.47
2022-11-15T02:56:01.164Z,74.80
2022-11-15T02:58:54.609Z,83.95
2022-11-15T03:01:46.992Z,90.22
2022-11-15T03:04:30.848Z,81.93
2022-11-15T03:07:06.514Z,74.93
2022-11-15T03:09:53.032Z,73.53
2022-11-15T03:12:26.626Z,68.13
2022-11-15T03:15:02.239Z,71.57
2022-11-15T03:17:30.752Z,71.20
2022-11-15T03:20:00.234Z,60.92
2022-11-15T03:22:30.196Z,66.78
2022-11-15T03:25:04.485Z,65.40
2022-11-15T03:27:38.897Z,67.40
2022-11-15T03:30:08.531Z,66.10
2022-11-15T03:32:57.719Z,60.30
2022-11-15T03:35:27.803Z,69.80
2022-11-15T03:38:20.937Z,61.42
2022-11-15T03:40:59.867Z,68.80
2022-11-15T03:44:04.340Z,61.40
2022-11-15T03:46:39.459Z,66.03
2022-11-15T03:49:14.119Z,65.97
2022-11-15T03:51:41.260Z,60.65
2022-11-15T03:54:07.914Z,70.43
2022-11-15T03:56:34.527Z,65.63
2022-11-15T03:59:01.142Z,67.55
2022-11-15T04:01:27.833Z,65.50
2022-11-15T04:03:54.510Z,65.03
2022-11-15T04:06:21.240Z,67.20
2022-11-15T04:08:47.831Z,67.15
2022-11-15T04:11:14.414Z,61.95
2022-11-15T04:13:41.012Z,61.08
2022-11-15T04:16:07.681Z,65.63
2022-11-15T04:18:34.311Z,59.30
2022-11-15T04:21:19.939Z,64.05
2022-11-15T04:23:52.722Z,63.67
2022-11-15T04:26:22.185Z,56.50
2022-11-15T04:29:07.594Z,53.28
2022-11-15T04:31:34.334Z,57.58
2022-11-15T04:34:00.966Z,57.03
2022-11-15T04:36:46.288Z,59.15
2022-11-15T04:39:12.938Z,57.22
2022-11-15T04:41:39.528Z,55.80
2022-11-15T04:44:06.140Z,53.80
2022-11-15T04:46:32.716Z,58.05
2022-11-15T04:48:59.616Z,63.47
2022-11-15T04:51:26.648Z,54.95
2022-11-15T04:53:53.719Z,51.22
2022-11-15T04:56:20.521Z,57.08
2022-11-15T04:58:50.093Z,56.55
2022-11-15T05:01:17.175Z,62.47
2022-11-15T05:04:03.240Z,57.92
2022-11-15T05:06:30.567Z,61.92
2022-11-15T05:08:57.635Z,57.63
2022-11-15T05:11:24.926Z,65.72
2022-11-15T05:13:51.747Z,61.22
2022-11-15T05:16:18.376Z,65.70
2022-11-15T05:18:45.023Z,74.70
2022-11-15T05:21:14.203Z,79.18
2022-11-15T05:23:41.457Z,68.57
2022-11-15T05:26:09.497Z,77.25
2022-11-15T05:28:37.432Z,76.35
2022-11-15T05:31:05.583Z,76.05
2022-11-15T05:33:34.451Z,74.70
2022-11-15T05:36:10.703Z,81.70
2022-11-15T05:38:37.548Z,77.90
2022-11-15T05:41:05.797Z,82.55
2022-11-15T05:43:36.487Z,74.60
2022-11-15T05:46:05.288Z,69.65
2022-11-15T05:48:33.389Z,82.28
2022-11-15T05:51:00.917Z,73.45
2022-11-15T05:53:27.980Z,75.25
2022-11-15T05:55:54.736Z,74.03
2022-11-15T05:58:21.722Z,63.08
2022-11-15T06:00:48.681Z,67.63
2022-11-15T06:03:15.296Z,62.42
2022-11-15T06:05:41.976Z,63.00
2022-11-15T06:08:08.659Z,55.92
2022-11-15T06:10:35.284Z,55.03
2022-11-15T06:13:06.175Z,55.55
2022-11-15T06:15:35.981Z,53.45
2022-11-15T06:18:02.664Z,51.40
2022-11-15T06:20:30.572Z,48.47
2022-11-15T06:23:06.820Z,49.55
2022-11-15T06:25:33.442Z,54.15
2022-11-15T06:28:00.639Z,52.22
2022-11-15T06:30:27.944Z,49.33
2022-11-15T06:33:05.414Z,52.63
2022-11-15T06:35:34.329Z,47.30
2022-11-15T06:38:06.828Z,45.65
2022-11-15T06:40:38.052Z,54.95
2022-11-15T06:43:05.874Z,54.22
2022-11-15T06:45:33.295Z,57.33
2022-11-15T06:47:59.999Z,54.47
2022-11-15T06:50:26.639Z,52.80
2022-11-15T06:52:53.274Z,50.72
2022-11-15T06:55:20.174Z,52.00
2022-11-15T06:57:51.867Z,51.45
2022-11-15T07:00:20.971Z,51.75
2022-11-15T07:02:48.484Z,51.97
2022-11-15T07:05:15.844Z,52.30
2022-11-15T07:07:42.602Z,51.35
2022-11-15T07:10:09.784Z,50.67
2022-11-15T07:12:36.566Z,57.10
2022-11-15T07:15:03.329Z,48.85
2022-11-15T07:17:29.895Z,52.60
2022-11-15T07:19:56.504Z,50.33
2022-11-15T07:22:23.132Z,58.05
2022-11-15T07:24:49.756Z,68.68
2022-11-15T07:27:16.510Z,72.72
2022-11-15T07:29:43.375Z,72.05
2022-11-15T07:32:10.603Z,70.70
2022-11-15T07:34:37.212Z,70.85
2022-11-15T07:37:03.843Z,64.07
2022-11-15T07:39:30.455Z,72.70
2022-11-15T07:42:17.093Z,79.50
2022-11-15T07:44:43.697Z,63.45
2022-11-15T07:47:10.426Z,75.25
2022-11-15T07:49:37.007Z,71.18
2022-11-15T07:52:03.732Z,79.18
2022-11-15T07:54:30.411Z,61.67
2022-11-15T07:56:57.886Z,76.43
2022-11-15T07:59:26.822Z,84.95
2022-11-15T08:01:53.676Z,72.80
2022-11-15T08:04:20.448Z,76.43
2022-11-15T08:06:47.096Z,79.88
2022-11-15T08:09:13.775Z,80.63
2022-11-15T08:11:40.390Z,84.25
2022-11-15T08:14:07.005Z,79.57
2022-11-15T08:16:34.038Z,98.43
2022-11-15T08:19:01.178Z,89.28
2022-11-15T08:21:28.010Z,90.53
2022-11-15T08:23:54.587Z,92.53
2022-11-15T08:26:21.319Z,98.25
2022-11-15T08:28:47.968Z,101.95
2022-11-15T08:31:17.770Z,94.18
2022-11-15T08:33:44.872Z,109.70
2022-11-15T08:36:15.717Z,85.78
2022-11-15T08:38:42.749Z,103.15
2022-11-15T08:41:15.984Z,101.55
2022-11-15T08:43:42.618Z,98.85
2022-11-15T08:46:13.459Z,100.20
2022-11-15T08:48:40.114Z,101.70
2022-11-15T08:51:07.144Z,88.43
2022-11-15T08:53:35.050Z,97.40
2022-11-15T08:56:01.889Z,86.85
2022-11-15T08:58:28.618Z,95.38
2022-11-15T09:00:55.632Z,97.82
2022-11-15T09:03:22.251Z,89.05
2022-11-15T09:05:48.896Z,79.40
2022-11-15T09:08:40.715Z,85.68
2022-11-15T09:11:09.943Z,81.22
2022-11-15T09:13:40.494Z,77.68
2022-11-15T09:16:07.404Z,78.30
2022-11-15T09:18:35.615Z,78.97
2022-11-15T09:21:03.808Z,76.10
2022-11-15T09:23:30.861Z,72.72
2022-11-15T09:26:02.245Z,73.03
2022-11-15T09:28:30.095Z,69.90
2022-11-15T09:31:01.585Z,70.63
2022-11-15T09:33:29.577Z,69.75
2022-11-15T09:36:02.192Z,65.45
2022-11-15T09:38:29.375Z,61.03
2022-11-15T09:41:14.785Z,68.15
2022-11-15T09:43:56.798Z,64.70
2022-11-15T09:46:43.700Z,61.33
2022-11-15T09:49:13.448Z,55.13
2022-11-15T09:51:49.062Z,60.63
2022-11-15T09:57:39.907Z,55.17
2022-11-15T10:03:18.671Z,52.00
2022-11-15T10:05:48.106Z,55.45
2022-11-15T10:08:38.201Z,49.25
2022-11-15T10:14:00.220Z,47.95
2022-11-15T10:16:54.073Z,46.63
2022-11-15T10:19:51.148Z,46.05
2022-11-15T10:22:32.750Z,45.58
2022-11-15T10:25:20.691Z,47.58
2022-11-15T10:28:17.775Z,40.30
2022-11-15T10:30:48.020Z,42.63
2022-11-15T10:36:12.182Z,42.08
2022-11-15T10:38:50.990Z,44.33
2022-11-15T10:41:32.516Z,43.03
2022-11-15T10:44:29.945Z,38.80
2022-11-15T10:46:56.653Z,39.47
2022-11-15T10:49:31.335Z,37.97
2022-11-15T10:52:17.850Z,37.95
2022-11-15T10:54:51.131Z,37.30
2022-11-15T10:57:21.505Z,38.40
2022-11-15T10:59:51.500Z,35.25
2022-11-15T11:02:39.008Z,32.33
2022-11-15T11:05:38.110Z,31.77
2022-11-15T11:08:16.916Z,32.83
2022-11-15T11:11:02.226Z,31.95
2022-11-15T11:13:40.952Z,27.67
2022-11-15T11:16:22.764Z,28.48
2022-11-15T11:19:07.663Z,28.52
2022-11-15T11:21:50.628Z,28.75
2022-11-15T11:24:49.886Z,26.00
2022-11-15T11:27:47.581Z,28.58
2022-11-15T11:30:24.333Z,28.20
2022-11-15T11:33:29.086Z,22.02
2022-11-15T11:36:18.068Z,22.77
2022-11-15T11:39:12.398Z,24.80
2022-11-15T11:41:41.771Z,26.58
2022-11-15T11:44:35.229Z,21.47
2022-11-15T11:47:10.409Z,20.20
2022-11-15T11:49:53.517Z,25.40
2022-11-15T11:52:27.831Z,26.40
2022-11-15T11:55:02.783Z,24.90
2022-11-15T11:58:10.794Z,22.10
2022-11-15T12:00:44.014Z,25.02
2022-11-15T12:03:32.333Z,24.17
2022-11-15T12:06:02.823Z,23.67
2022-11-15T12:08:54.701Z,21.40
2022-11-15T12:11:46.256Z,20.00
2022-11-15T12:14:44.110Z,22.10
2022-11-15T12:17:15.483Z,20.73
2022-11-15T12:19:43.767Z,19.40
2022-11-15T12:22:41.842Z,21.35
2022-11-15T12:25:20.695Z,18.88
2022-11-15T12:28:01.170Z,23.25
2022-11-15T12:30:41.775Z,21.48
2022-11-15T12:33:36.228Z,18.67
2022-11-15T12:36:30.197Z,17.17
2022-11-15T12:39:05.607Z,15.27
2022-11-15T12:41:42.730Z,16.95
2022-11-15T12:44:14.527Z,19.15
2022-11-15T12:46:41.448Z,19.77
2022-11-15T12:49:26.916Z,16.83
2022-11-15T12:51:59.562Z,18.92
2022-11-15T12:54:27.481Z,22.23
2022-11-15T12:57:09.304Z,17.65
2022-11-15T12:59:56.292Z,16.98
2022-11-15T13:02:30.692Z,18.45
2022-11-15T13:05:15.999Z,18.00
2022-11-15T13:07:42.539Z,17.17
2022-11-15T13:10:35.540Z,15.02
2022-11-15T13:13:05.196Z,18.13
2022-11-15T13:15:42.611Z,19.95
2022-11-15T13:18:24.659Z,16.58
2022-11-15T13:20:51.353Z,21.98
2022-11-15T13:23:18.062Z,17.88
2022-11-15T13:25:58.505Z,19.13
2022-11-15T13:28:42.836Z,19.45
2022-11-15T13:31:38.657Z,20.17
2022-11-15T13:34:50.655Z,19.70
2022-11-15T13:37:21.752Z,18.00
2022-11-15T13:39:50.123Z,17.80
2022-11-15T13:42:18.714Z,19.10
2022-11-15T13:45:04.422Z,17.63
2022-11-15T13:47:32.639Z,15.15
2022-11-15T13:50:00.456Z,23.27
2022-11-15T13:52:35.917Z,20.33
2022-11-15T13:55:14.290Z,19.63
2022-11-15T13:57:45.517Z,18.45
2022-11-15T14:00:33.220Z,17.67
2022-11-15T14:03:09.284Z,17.60
2022-11-15T14:05:36.320Z,20.45
2022-11-15T14:08:25.087Z,16.00
2022-11-15T14:11:16.225Z,16.00
2022-11-15T14:13:43.515Z,17.40
2022-11-15T14:16:20.671Z,16.77
2022-11-15T14:18:52.301Z,15.25
2022-11-15T14:21:20.665Z,14.48
2022-11-15T14:23:49.957Z,17.08
2022-11-15T14:26:34.555Z,13.48
2022-11-15T14:29:32.923Z,14.40
2022-11-15T14:32:23.788Z,16.23
2022-11-15T14:34:56.250Z,17.02
2022-11-15T14:37:25.736Z,16.27
2022-11-15T14:39:53.137Z,15.35
2022-11-15T14:42:20.629Z,17.60
2022-11-15T14:44:47.854Z,16.00
2022-11-15T14:47:14.580Z,14.85
2022-11-15T14:49:41.332Z,16.65
2022-11-15T14:52:32.247Z,16.50
2022-11-15T14:55:00.616Z,17.50
2022-11-15T14:57:27.312Z,21.27
2022-11-15T14:59:54.189Z,21.83
2022-11-15T15:02:26.579Z,21.20
2022-11-15T15:04:54.164Z,24.52
2022-11-15T15:07:21.450Z,23.70
2022-11-15T15:09:48.221Z,32.10
2022-11-15T15:12:20.578Z,36.00
2022-11-15T15:14:48.964Z,43.45
2022-11-15T15:17:16.032Z,37.85
2022-11-15T15:19:42.804Z,35.15
2022-11-15T15:22:18.043Z,46.00
2022-11-15T15:24:46.048Z,45.03
2022-11-15T15:27:13.517Z,42.33
2022-11-15T15:29:40.220Z,43.03
2022-11-15T15:32:07.136Z,47.60
2022-11-15T15:34:34.471Z,48.35
2022-11-15T15:37:34.067Z,47.22
2022-11-15T15:40:00.699Z,53.13
2022-11-15T15:42:27.297Z,52.38
2022-11-15T15:44:53.930Z,48.58
2022-11-15T15:47:24.382Z,45.70
2022-11-15T15:49:51.697Z,53.83
2022-11-15T15:52:18.340Z,44.40
2022-11-15T15:54:45.042Z,45.00
2022-11-15T15:57:15.533Z,47.53
2022-11-15T15:59:42.178Z,44.28
2022-11-15T16:02:15.700Z,53.67
2022-11-15T16:04:42.330Z,49.75
2022-11-15T16:07:20.106Z,56.85
2022-11-15T16:10:02.372Z,57.17
2022-11-15T16:12:35.392Z,55.35
2022-11-15T16:15:03.274Z,56.80
2022-11-15T16:17:34.522Z,59.28
2022-11-15T16:20:01.518Z,57.95
2022-11-15T16:22:30.130Z,59.45
2022-11-15T16:24:57.374Z,54.40
2022-11-15T16:27:24.193Z,56.22
2022-11-15T16:29:50.854Z,59.33
2022-11-15T16:32:17.748Z,61.97
2022-11-15T16:34:48.788Z,62.38
2022-11-15T16:37:23.769Z,67.90
2022-11-15T16:39:50.620Z,63.17
2022-11-15T16:42:17.347Z,62.17
2022-11-15T16:44:44.960Z,63.20
2022-11-15T16:47:20.053Z,65.05
2022-11-15T16:49:47.398Z,65.70
2022-11-15T16:52:18.732Z,64.43
2022-11-15T16:54:47.795Z,68.32
2022-11-15T16:57:14.404Z,69.00
2022-11-15T16:59:41.006Z,67.13
2022-11-15T17:02:13.628Z,62.40
2022-11-15T17:04:40.330Z,62.00
2022-11-15T17:07:07.210Z,66.88
2022-11-15T17:09:34.408Z,65.35
2022-11-15T17:12:01.118Z,66.60
2022-11-15T17:14:27.705Z,63.47
2022-11-15T17:16:55.386Z,63.05
2022-11-15T17:19:22.276Z,67.13
2022-11-15T17:21:51.955Z,63.50
2022-11-15T17:24:20.790Z,67.80
2022-11-15T17:26:47.484Z,70.05
2022-11-15T17:29:14.083Z,65.72
2022-11-15T17:31:40.699Z,66.53
2022-11-15T17:34:07.925Z,70.93
2022-11-15T17:36:35.640Z,80.30
2022-11-15T17:39:02.714Z,70.35
2022-11-15T17:41:29.671Z,73.60
2022-11-15T17:43:58.536Z,73.60
2022-11-15T17:46:25.194Z,74.75
2022-11-15T17:48:51.974Z,70.97
2022-11-15T17:51:19.335Z,78.13
2022-11-15T17:53:49.158Z,79.93
2022-11-15T17:56:18.320Z,80.30
2022-11-15T17:58:56.517Z,77.15
2022-11-15T18:01:31.775Z,82.93
2022-11-15T18:04:00.781Z,86.18
2022-11-15T18:06:30.537Z,83.60
2022-11-15T18:08:57.755Z,84.18
2022-11-15T18:11:50.564Z,91.82
2022-11-15T18:14:18.753Z,85.10
2022-11-15T18:16:45.796Z,89.90
2022-11-15T18:19:15.862Z,75.80
2022-11-15T18:21:56.889Z,88.93
2022-11-15T18:24:25.320Z,96.35
2022-11-15T18:26:52.032Z,94.38
2022-11-15T18:29:19.724Z,89.38
2022-11-15T18:31:49.580Z,88.68
2022-11-15T18:34:16.698Z,107.38
2022-11-15T18:36:43.983Z,86.57
2022-11-15T18:39:16.263Z,87.18
2022-11-15T18:41:44.399Z,108.22
2022-11-15T18:44:11.137Z,80.10
2022-11-15T18:46:39.217Z,75.00
2022-11-15T18:49:07.714Z,80.65
2022-11-15T18:51:36.879Z,85.47
2022-11-15T18:54:04.377Z,80.25
2022-11-15T18:56:32.148Z,75.25
2022-11-15T18:59:00.813Z,99.45
2022-11-15T19:01:29.579Z,82.82
2022-11-15T19:03:57.744Z,76.55
2022-11-15T19:06:29.271Z,90.07
2022-11-15T19:08:58.562Z,87.22
2022-11-15T19:11:31.222Z,104.57
2022-11-15T19:14:03.283Z,79.38
2022-11-15T19:16:33.359Z,73.38
2022-11-15T19:19:02.296Z,76.25
2022-11-15T19:21:31.062Z,66.10
2022-11-15T19:23:58.342Z,63.38
2022-11-15T19:26:26.460Z,65.45
2022-11-15T19:28:55.273Z,59.55
2022-11-15T19:31:23.655Z,54.28
2022-11-15T19:33:51.208Z,57.75
2022-11-15T19:36:23.189Z,59.40
2022-11-15T19:38:50.234Z,60.65
2022-11-15T19:41:19.072Z,57.80
2022-11-15T19:43:50.876Z,57.30
2022-11-15T19:46:20.495Z,67.55
2022-11-15T19:48:48.163Z,55.50
2022-11-15T19:51:19.275Z,55.65
2022-11-15T19:53:46.051Z,56.92
2022-11-15T19:56:15.064Z,54.15
2022-11-15T19:58:42.475Z,63.70
2022-11-15T20:01:27.097Z,60.30
2022-11-15T20:03:55.585Z,52.10
2022-11-15T20:06:24.508Z,61.88
2022-11-15T20:08:52.017Z,54.75
2022-11-15T20:11:19.104Z,58.17
2022-11-15T20:13:45.983Z,60.45
2022-11-15T20:16:17.661Z,54.70
2022-11-15T20:18:44.474Z,46.17
2022-11-15T20:21:11.774Z,58.47
2022-11-15T20:23:39.291Z,47.67
2022-11-15T20:26:07.567Z,59.65
2022-11-15T20:28:37.016Z,51.28
2022-11-15T20:31:04.102Z,47.95
2022-11-15T20:33:30.736Z,50.85
2022-11-15T20:35:57.386Z,46.47
2022-11-15T20:38:24.419Z,47.60
2022-11-15T20:40:56.132Z,46.63
2022-11-15T20:43:25.805Z,57.58
2022-11-15T20:45:52.537Z,69.95
2022-11-15T20:48:19.290Z,49.50
2022-11-15T20:50:47.194Z,60.83
2022-11-15T20:53:17.415Z,62.35
2022-11-15T20:58:15.946Z,56.08
2022-11-15T21:00:44.721Z,80.47
2022-11-15T21:03:12.972Z,67.20
2022-11-15T21:05:41.429Z,72.50
2022-11-15T21:08:09.373Z,56.47
2022-11-15T21:10:54.666Z,80.95
2022-11-15T21:13:21.467Z,55.47
2022-11-15T21:15:48.468Z,62.40
2022-11-15T21:18:15.615Z,70.68
2022-11-15T21:20:42.512Z,62.25
2022-11-15T21:23:09.504Z,87.80
2022-11-15T21:25:36.158Z,94.05
2022-11-15T21:28:02.954Z,64.00
2022-11-15T21:30:29.977Z,71.40
2022-11-15T21:32:56.870Z,76.43
2022-11-15T21:35:23.865Z,82.72
2022-11-15T21:37:56.170Z,79.55
2022-11-15T21:40:23.865Z,105.85
2022-11-15T21:42:50.625Z,82.68
2022-11-15T21:45:17.325Z,75.32
2022-11-15T21:47:46.384Z,89.72
2022-11-15T21:50:13.876Z,90.40
2022-11-15T21:52:40.769Z,93.10
2022-11-15T21:55:08.195Z,77.95
2022-11-15T21:57:34.884Z,92.28
2022-11-15T22:00:20.289Z,86.63
2022-11-15T22:02:46.939Z,90.95
2022-11-15T22:05:13.682Z,93.57
2022-11-15T22:07:40.370Z,102.47
2022-11-15T22:10:07.254Z,121.15
2022-11-15T22:12:33.851Z,93.72
2022-11-15T22:15:00.482Z,104.93
2022-11-15T22:17:47.103Z,106.18
2022-11-15T22:20:37.582Z,95.57
2022-11-15T22:23:02.107Z,84.85
2022-11-15T22:25:28.912Z,85.78
2022-11-15T22:27:55.946Z,104.18
2022-11-15T22:30:22.777Z,81.72
2022-11-15T22:32:49.729Z,82.88
2022-11-15T22:35:16.828Z,88.65
2022-11-15T22:37:43.449Z,85.38
2022-11-15T22:40:10.482Z,80.18
2022-11-15T22:42:37.110Z,92.93
2022-11-15T22:45:04.199Z,86.30
2022-11-15T22:47:30.791Z,80.97
2022-11-15T22:49:57.954Z,95.47
2022-11-15T22:52:24.606Z,78.25
2022-11-15T22:54:51.278Z,90.60
2022-11-15T22:57:17.865Z,107.30
2022-11-15T22:59:44.496Z,87.85
2022-11-15T23:02:11.123Z,79.53
2022-11-15T23:04:37.768Z,84.38
2022-11-15T23:07:04.603Z,95.97
2022-11-15T23:09:31.339Z,101.13
2022-11-15T23:12:16.791Z,92.53
2022-11-15T23:14:43.407Z,108.38
2022-11-15T23:17:10.028Z,84.85
2022-11-15T23:19:36.662Z,91.10
2022-11-15T23:22:21.925Z,92.55
2022-11-15T23:24:48.641Z,80.03
2022-11-15T23:27:19.765Z,78.78
2022-11-15T23:30:05.707Z,90.40
2022-11-15T23:32:51.347Z,92.07
2022-11-15T23:35:18.063Z,80.97
2022-11-15T23:37:44.695Z,74.55
2022-11-15T23:40:12.098Z,74.72
2022-11-15T23:42:38.793Z,76.00
2022-11-15T23:45:06.282Z,75.28
2022-11-15T23:47:32.895Z,78.32
2022-11-15T23:49:59.533Z,78.50
2022-11-15T23:52:26.290Z,89.32
2022-11-15T23:54:52.975Z,91.28
2022-11-15T23:57:19.671Z,67.63
2022-11-15T23:59:46.315Z,81.10
